Terminal Aerodrome Forecast
Issued by NWS Wilmington, OH

Home | Current Version | Previous Version | Text Only | Print | Product List | Glossary On
Versions: 1 2 3 4 5 6 7 8 9 10 11 12 13 14 15 16 17 18 19 20 21 22 23 24
000
FTUS41 KILN 020500 RRA
TAFCVG
TAF
KCVG 020545Z 0206/0312 VRB04KT P6SM SCT250
     FM021100 15007KT P6SM SCT050 BKN200
     FM021500 18009G16KT P6SM SCT050 BKN150
     FM022200 16007KT P6SM FEW040 BKN150
     FM030800 17009KT 5SM -SHRA BR BKN040 OVC070=

USA.gov is the U.S. government's official web portal to all federal, state and local government web resources and services.